Time;durP1;ratioP1;P1;durP2;ratioP2;P2;SDS_P1;SDS_P2;PMS_P1;PMS_P2;Temp;Humidity;BMP_temperature;BMP_pressure;BME280_temperature;BME280_humidity;BME280_pressure;Samples;Min_cycle;Max_cycle;Signal;HPM_P1;HPM_P2
2023/04/01 00:00:47;;;;;;;8.93;5.90;;;;;;;;;;4971822;28;20057;-74
2023/04/01 00:03:13;;;;;;;10.52;5.25;;;;;;;;;;4976014;28;20054;-76
2023/04/01 00:05:40;;;;;;;9.15;5.25;;;;;;;;;;4959192;28;20042;-76
2023/04/01 00:08:05;;;;;;;9.60;5.53;;;10.40;99.90;;;;;;4993709;28;20708;-75
2023/04/01 00:10:31;;;;;;;5.63;4.80;;;;;;;;;;4971669;28;20046;-74
2023/04/01 00:12:57;;;;;;;5.30;4.43;;;;;;;;;;4981399;28;20042;-75
2023/04/01 00:15:23;;;;;;;7.45;5.03;;;;;;;;;;4973814;28;20695;-75
2023/04/01 00:17:49;;;;;;;6.90;4.68;;;10.30;99.90;;;;;;4984776;28;20038;-75
2023/04/01 00:20:15;;;;;;;5.90;5.07;;;;;;;;;;4999680;28;20041;-75
2023/04/01 00:22:41;;;;;;;6.43;5.28;;;;;;;;;;4993086;28;20116;-75
2023/04/01 00:25:07;;;;;;;7.80;5.75;;;10.10;99.90;;;;;;4990357;28;20452;-75
2023/04/01 00:27:33;;;;;;;10.57;6.40;;;;;;;;;;4974887;28;20046;-75
2023/04/01 00:29:59;;;;;;;6.85;4.38;;;;;;;;;;4998145;28;20048;-75
2023/04/01 00:32:26;;;;;;;8.48;5.65;;;;;;;;;;4976744;28;20175;-75
2023/04/01 00:34:52;;;;;;;6.35;4.95;;;;;;;;;;4990705;28;20046;-75
2023/04/01 00:37:19;;;;;;;6.43;4.68;;;;;;;;;;4999990;28;20500;-76
2023/04/01 00:39:44;;;;;;;6.30;4.80;;;10.20;99.90;;;;;;4968397;28;20523;-76
2023/04/01 00:42:11;;;;;;;8.43;5.57;;;;;;;;;;4973587;28;20055;-75
2023/04/01 00:44:37;;;;;;;8.82;5.20;;;;;;;;;;4981956;28;20049;-75
2023/04/01 00:47:03;;;;;;;6.10;4.88;;;;;;;;;;4993432;28;20124;-75
2023/04/01 00:49:32;;;;;;;7.28;5.53;;;;;;;;;;4977900;28;20057;-75
2023/04/01 00:51:59;;;;;;;11.32;5.72;;;10.20;99.90;;;;;;4976793;28;20045;-76
2023/04/01 00:54:27;;;;;;;8.50;5.80;;;;;;;;;;4955598;28;20748;-76
2023/04/01 00:56:59;;;;;;;8.65;5.28;;;;;;;;;;4974248;28;20451;-75
2023/04/01 00:59:30;;;;;;;6.63;5.47;;;;;;;;;;4990274;28;20050;-76
2023/04/01 01:01:56;;;;;;;9.65;5.75;;;;;;;;;;4977974;28;20813;-74
2023/04/01 01:04:24;;;;;;;8.77;5.65;;;;;;;;;;4981363;28;20501;-75
2023/04/01 01:06:57;;;;;;;8.40;5.18;;;;;;;;;;4975254;28;20451;-75
2023/04/01 01:09:31;;;;;;;8.35;5.43;;;;;;;;;;4973505;28;20049;-75
2023/04/01 01:12:16;;;;;;;6.40;4.10;;;;;;;;;;4971979;28;20056;-75
2023/04/01 01:14:55;;;;;;;7.88;5.10;;;10.20;99.90;;;;;;4978487;28;20141;-75
2023/04/01 01:17:29;;;;;;;6.95;5.28;;;;;;;;;;4973234;28;20050;-74
2023/04/01 01:20:23;;;;;;;8.05;5.57;;;10.30;99.90;;;;;;4985891;28;20073;-75
2023/04/01 01:23:08;;;;;;;6.75;5.40;;;;;;;;;;4973123;28;20057;-76
2023/04/01 01:25:35;;;;;;;9.77;5.85;;;;;;;;;;4974977;28;20453;-75
2023/04/01 01:28:29;;;;;;;8.23;5.60;;;;;;;;;;4988902;28;20066;-76
2023/04/01 01:31:14;;;;;;;7.72;5.53;;;;;;;;;;4983773;28;20046;-75
2023/04/01 01:33:43;;;;;;;7.68;5.72;;;;;;;;;;4980872;28;20050;-76
2023/04/01 01:36:12;;;;;;;8.55;5.43;;;;;;;;;;4982233;28;20053;-75
2023/04/01 01:38:38;;;;;;;8.07;5.75;;;;;;;;;;4959914;28;20053;-76
2023/04/01 01:41:06;;;;;;;6.35;5.43;;;10.10;99.90;;;;;;4970978;28;20445;-75
2023/04/01 01:43:37;;;;;;;10.95;6.63;;;;;;;;;;4976579;28;20046;-75
2023/04/01 01:46:07;;;;;;;7.97;6.07;;;;;;;;;;4979177;28;20093;-75
2023/04/01 01:48:35;;;;;;;8.93;5.18;;;10.00;99.90;;;;;;4973441;28;20081;-76
2023/04/01 01:51:01;;;;;;;7.45;5.10;;;;;;;;;;4973750;28;20034;-75
2023/04/01 01:53:27;;;;;;;6.75;5.00;;;;;;;;;;4974199;28;20038;-75
2023/04/01 01:55:54;;;;;;;6.95;4.95;;;;;;;;;;4975314;28;20138;-75
2023/04/01 01:58:23;;;;;;;5.72;4.47;;;;;;;;;;4983868;28;20071;-76
2023/04/01 02:01:16;;;;;;;7.40;5.32;;;;;;;;;;4978672;28;20816;-76
2023/04/01 02:03:42;;;;;;;5.50;3.72;;;;;;;;;;4977826;28;20582;-75
2023/04/01 02:06:10;;;;;;;5.93;4.10;;;;;;;;;;4973654;28;20474;-76
2023/04/01 02:08:53;;;;;;;7.43;4.18;;;9.90;99.90;;;;;;4989944;28;20054;-76
2023/04/01 02:11:22;;;;;;;7.80;4.22;;;;;;;;;;4987614;28;20066;-76
2023/04/01 02:13:53;;;;;;;7.30;3.70;;;;;;;;;;4989480;28;20224;-76
2023/04/01 02:16:35;;;;;;;5.88;3.40;;;9.80;99.90;;;;;;4987842;28;20054;-75
2023/04/01 02:19:07;;;;;;;5.28;4.03;;;;;;;;;;4971279;28;20284;-76
2023/04/01 02:21:33;;;;;;;5.18;3.38;;;9.70;99.90;;;;;;4985418;28;20069;-75
2023/04/01 02:24:01;;;;;;;3.65;3.15;;;;;;;;;;4984433;28;20503;-76
2023/04/01 02:26:27;;;;;;;4.70;3.00;;;;;;;;;;4979401;28;20053;-76
2023/04/01 02:28:54;;;;;;;4.65;3.50;;;;;;;;;;4980866;28;20103;-75
2023/04/01 02:31:20;;;;;;;4.20;3.10;;;;;;;;;;4975375;28;20050;-75
2023/04/01 02:33:47;;;;;;;6.00;3.13;;;9.80;99.90;;;;;;4970869;28;20050;-74
2023/04/01 02:36:14;;;;;;;6.18;2.85;;;;;;;;;;4977121;28;20050;-74
2023/04/01 02:38:40;;;;;;;3.92;2.75;;;;;;;;;;4982130;28;20049;-75
2023/04/01 02:41:07;;;;;;;3.47;2.55;;;;;;;;;;4973606;28;20038;-76
2023/04/01 02:43:33;;;;;;;4.93;3.20;;;;;;;;;;4976254;28;20053;-75
2023/04/01 02:45:59;;;;;;;7.43;2.90;;;;;;;;;;4977049;28;20049;-75
2023/04/01 02:48:25;;;;;;;2.88;2.22;;;;;;;;;;4976221;28;20093;-76
2023/04/01 02:50:51;;;;;;;3.05;2.40;;;;;;;;;;4971013;28;20544;-76
2023/04/01 02:53:17;;;;;;;2.75;2.30;;;;;;;;;;4978489;28;20050;-76
2023/04/01 02:55:43;;;;;;;3.58;2.40;;;;;;;;;;4971129;28;20701;-75
2023/04/01 02:58:09;;;;;;;3.65;2.47;;;;;;;;;;4973575;28;20065;-75
2023/04/01 03:00:35;;;;;;;4.13;2.70;;;;;;;;;;4971536;28;20046;-76
2023/04/01 03:03:02;;;;;;;3.22;2.80;;;;;;;;;;4987153;28;20097;-76
2023/04/01 03:05:28;;;;;;;5.22;2.63;;;;;;;;;;4970594;28;20065;-75
2023/04/01 03:07:54;;;;;;;4.82;2.67;;;;;;;;;;4971216;28;20046;-75
2023/04/01 03:10:20;;;;;;;3.78;2.67;;;;;;;;;;4984920;28;20124;-76
2023/04/01 03:12:46;;;;;;;5.63;2.65;;;;;;;;;;5002376;28;20446;-76
2023/04/01 03:15:14;;;;;;;4.32;2.80;;;;;;;;;;4979311;28;20072;-76
2023/04/01 03:17:41;;;;;;;7.13;3.20;;;;;;;;;;4974533;28;20500;-75
2023/04/01 03:20:08;;;;;;;4.63;2.92;;;;;;;;;;4984528;28;20149;-76
2023/04/01 03:22:34;;;;;;;5.00;3.35;;;;;;;;;;4985670;28;20046;-76
2023/04/01 03:25:00;;;;;;;5.70;3.65;;;;;;;;;;4971051;28;20753;-75
2023/04/01 03:27:26;;;;;;;5.43;3.50;;;;;;;;;;4976204;28;20100;-76
2023/04/01 03:29:52;;;;;;;4.90;3.55;;;;;;;;;;4975522;28;20049;-76
2023/04/01 03:32:18;;;;;;;4.75;3.70;;;;;;;;;;4978133;28;20038;-75
2023/04/01 03:34:44;;;;;;;6.18;3.55;;;;;;;;;;4983752;28;20057;-76
2023/04/01 03:37:10;;;;;;;4.07;3.08;;;;;;;;;;4980709;28;20424;-76
2023/04/01 03:39:36;;;;;;;5.05;4.18;;;;;;;;;;4976693;28;20727;-76
2023/04/01 03:42:02;;;;;;;5.93;3.78;;;;;;;;;;4978231;28;20050;-76
2023/04/01 03:44:32;;;;;;;5.70;4.00;;;;;;;;;;4978312;28;20117;-76
2023/04/01 03:46:58;;;;;;;6.03;4.35;;;;;;;;;;4981679;28;20512;-76
2023/04/01 03:49:24;;;;;;;5.22;4.13;;;;;;;;;;4971050;28;20038;-75
2023/04/01 03:51:50;;;;;;;5.95;4.43;;;;;;;;;;4977053;28;20073;-74
2023/04/01 03:54:16;;;;;;;7.60;4.60;;;;;;;;;;4978482;28;20167;-76
2023/04/01 03:56:43;;;;;;;6.80;4.22;;;;;;;;;;4979109;28;20088;-76
2023/04/01 03:59:09;;;;;;;7.82;5.18;;;;;;;;;;4969596;28;20042;-75
2023/04/01 04:01:35;;;;;;;5.97;4.55;;;;;;;;;;4975983;28;20057;-76
2023/04/01 04:04:01;;;;;;;5.30;4.30;;;;;;;;;;4974854;28;20046;-75
2023/04/01 04:06:28;;;;;;;6.43;4.15;;;;;;;;;;4987750;28;20049;-76
2023/04/01 04:08:54;;;;;;;6.18;4.10;;;;;;;;;;4974225;28;20679;-76
2023/04/01 04:11:20;;;;;;;6.30;3.88;;;;;;;;;;4988617;28;20049;-76
2023/04/01 04:13:49;;;;;;;7.63;3.97;;;;;;;;;;4986517;28;20038;-76
2023/04/01 04:16:16;;;;;;;5.90;4.00;;;9.90;99.90;;;;;;4992708;28;20133;-75
2023/04/01 04:18:42;;;;;;;6.63;3.67;;;;;;;;;;4995109;28;20433;-76
2023/04/01 04:21:11;;;;;;;4.90;3.83;;;;;;;;;;4998586;28;20037;-76
2023/04/01 04:23:37;;;;;;;5.88;3.90;;;;;;;;;;4981273;28;20051;-76
2023/04/01 04:26:08;;;;;;;5.60;4.10;;;;;;;;;;4982015;28;20057;-76
2023/04/01 04:28:34;;;;;;;5.82;4.18;;;;;;;;;;4977428;28;20093;-76
2023/04/01 04:31:01;;;;;;;5.95;4.10;;;;;;;;;;4966195;28;20107;-76
2023/04/01 04:33:27;;;;;;;5.13;3.63;;;;;;;;;;4975366;28;20042;-76
2023/04/01 04:35:55;;;;;;;5.38;3.42;;;;;;;;;;4974049;28;20080;-76
2023/04/01 04:38:21;;;;;;;3.90;3.15;;;;;;;;;;4969740;28;20085;-76
2023/04/01 04:40:47;;;;;;;5.00;3.15;;;;;;;;;;4969419;28;20170;-76
2023/04/01 04:43:13;;;;;;;4.38;3.17;;;;;;;;;;4957314;28;20066;-76
2023/04/01 04:45:40;;;;;;;4.60;3.40;;;;;;;;;;4965844;28;20058;-76
2023/04/01 04:48:08;;;;;;;4.93;3.15;;;;;;;;;;4977134;28;20409;-76
2023/04/01 04:50:34;;;;;;;5.43;3.08;;;;;;;;;;4968854;28;20066;-74
2023/04/01 04:53:00;;;;;;;4.30;3.10;;;;;;;;;;4969913;28;20050;-76
2023/04/01 04:55:26;;;;;;;4.68;3.22;;;;;;;;;;4965090;28;20065;-76
2023/04/01 04:57:51;;;;;;;4.15;3.28;;;9.80;99.90;;;;;;4957322;28;20157;-76
2023/04/01 05:00:17;;;;;;;5.68;3.55;;;;;;;;;;4949697;28;20039;-77
2023/04/01 05:02:44;;;;;;;4.65;3.38;;;;;;;;;;4972480;28;20038;-75
2023/04/01 05:05:10;;;;;;;5.40;3.95;;;;;;;;;;4972404;28;20600;-75
2023/04/01 05:07:36;;;;;;;8.10;4.00;;;;;;;;;;4976628;28;20046;-76
2023/04/01 05:10:03;;;;;;;6.05;4.13;;;;;;;;;;4948918;28;20101;-76
2023/04/01 05:12:29;;;;;;;6.72;4.30;;;;;;;;;;4954718;28;20165;-76
2023/04/01 05:14:55;;;;;;;8.32;5.18;;;;;;;;;;4977359;28;20455;-76
2023/04/01 05:17:21;;;;;;;9.70;5.10;;;;;;;;;;4948520;28;20050;-74
2023/04/01 05:19:47;;;;;;;6.82;4.65;;;;;;;;;;4968049;28;20030;-76
2023/04/01 05:22:13;;;;;;;8.90;5.03;;;;;;;;;;4974566;28;20867;-76
2023/04/01 05:24:39;;;;;;;9.13;5.40;;;;;;;;;;4979676;28;20058;-76
2023/04/01 05:27:05;;;;;;;10.40;5.38;;;;;;;;;;4969770;28;20081;-76
2023/04/01 05:29:31;;;;;;;9.20;5.45;;;;;;;;;;4967293;28;20039;-75
2023/04/01 05:31:57;;;;;;;10.35;5.85;;;;;;;;;;4978940;28;20080;-75
2023/04/01 05:34:23;;;;;;;8.07;5.75;;;;;;;;;;4980953;28;20099;-76
2023/04/01 05:36:48;;;;;;;9.27;5.63;;;9.90;99.90;;;;;;4979517;28;20050;-76
2023/04/01 05:39:14;;;;;;;10.60;5.85;;;;;;;;;;4988488;28;20911;-76
2023/04/01 05:41:41;;;;;;;8.85;6.13;;;;;;;;;;4985597;28;20175;-77
2023/04/01 05:44:07;;;;;;;9.25;5.57;;;;;;;;;;5016063;28;20055;-76
2023/04/01 05:46:32;;;;;;;8.55;5.45;;;9.90;99.90;;;;;;4998444;28;20061;-76
2023/04/01 05:48:58;;;;;;;10.25;5.30;;;;;;;;;;4992925;28;20572;-75
2023/04/01 05:51:24;;;;;;;11.48;5.82;;;;;;;;;;4997949;28;20808;-76
2023/04/01 05:53:50;;;;;;;9.38;6.18;;;10.00;99.90;;;;;;4990257;28;20759;-76
2023/04/01 05:56:16;;;;;;;10.68;6.07;;;;;;;;;;4999808;28;20108;-75
2023/04/01 05:58:42;;;;;;;9.52;6.00;;;;;;;;;;5005893;28;20065;-76
2023/04/01 06:01:10;;;;;;;10.90;6.53;;;10.00;99.90;;;;;;5007868;28;20044;-76
2023/04/01 06:03:36;;;;;;;10.75;6.45;;;;;;;;;;5003948;28;20091;-75
2023/04/01 06:06:02;;;;;;;9.68;5.90;;;10.10;99.90;;;;;;4996208;28;20056;-76
2023/04/01 06:08:30;;;;;;;10.43;6.45;;;;;;;;;;4996768;28;21361;-76
2023/04/01 06:11:37;;;;;;;10.20;6.75;;;10.10;99.90;;;;;;5008067;28;20129;-76
2023/04/01 06:14:05;;;;;;;10.68;6.47;;;;;;;;;;4994212;28;20053;-76
2023/04/01 06:16:30;;;;;;;12.10;5.72;;;10.10;99.90;;;;;;4992430;28;20053;-76
2023/04/01 06:18:56;;;;;;;9.48;6.68;;;;;;;;;;5006615;28;20046;-75
2023/04/01 06:21:33;;;;;;;9.77;6.30;;;;;;;;;;4987642;28;20419;-75
2023/04/01 06:23:59;;;;;;;9.93;6.30;;;;;;;;;;5000519;28;20042;-76
2023/04/01 06:26:38;;;;;;;12.65;6.70;;;;;;;;;;4996885;28;20057;-76
2023/04/01 06:29:25;;;;;;;11.63;6.75;;;10.10;99.90;;;;;;4991556;28;20088;-76
2023/04/01 06:32:12;;;;;;;14.32;6.60;;;;;;;;;;5008555;28;20120;-76
2023/04/01 06:35:11;;;;;;;13.52;6.53;;;10.20;99.90;;;;;;4990503;28;20052;-74
2023/04/01 06:37:46;;;;;;;8.88;5.82;;;;;;;;;;5004251;28;20171;-74
2023/04/01 06:40:50;;;;;;;10.23;6.32;;;10.20;99.90;;;;;;5004528;28;20049;-73
2023/04/01 06:43:38;;;;;;;8.85;5.75;;;10.10;99.90;;;;;;4994622;28;20057;-74
2023/04/01 06:46:20;;;;;;;9.45;6.35;;;;;;;;;;4987669;28;20496;-75
2023/04/01 06:49:00;;;;;;;8.90;5.85;;;;;;;;;;5009115;28;20407;-74
2023/04/01 06:51:47;;;;;;;9.07;6.20;;;10.10;99.90;;;;;;4998273;28;20044;-74
2023/04/01 06:54:17;;;;;;;9.93;5.65;;;;;;;;;;5012493;28;20045;-74
2023/04/01 06:56:46;;;;;;;9.90;5.00;;;9.90;99.90;;;;;;4996329;28;20136;-72
2023/04/01 06:59:15;;;;;;;8.80;4.85;;;;;;;;;;5011207;28;20049;-71
2023/04/01 07:01:44;;;;;;;6.75;4.80;;;;;;;;;;4997561;28;20586;-73
2023/04/01 07:04:20;;;;;;;6.90;4.60;;;10.00;99.90;;;;;;5015406;28;20042;-73
2023/04/01 07:06:49;;;;;;;6.13;4.72;;;;;;;;;;5021110;28;20053;-73
2023/04/01 07:09:24;;;;;;;5.93;4.60;;;;;;;;;;5019094;28;20042;-73
2023/04/01 07:11:51;;;;;;;5.40;4.15;;;10.10;99.90;;;;;;5000516;28;20037;-74
2023/04/01 07:14:21;;;;;;;6.28;4.20;;;;;;;;;;4995001;28;20108;-73
2023/04/01 07:17:15;;;;;;;5.93;3.70;;;10.00;99.90;;;;;;5004115;28;20870;-73
2023/04/01 07:19:52;;;;;;;5.00;3.45;;;;;;;;;;5002203;28;20064;-74
2023/04/01 07:22:30;;;;;;;7.47;3.22;;;;;;;;;;5014044;28;20128;-73
2023/04/01 07:24:57;;;;;;;5.38;3.33;;;;;;;;;;5027146;28;20041;-71
2023/04/01 07:27:23;;;;;;;4.80;3.58;;;;;;;;;;5002255;28;20049;-73
2023/04/01 07:29:50;;;;;;;3.75;3.00;;;;;;;;;;5002925;28;20115;-73
2023/04/01 07:32:23;;;;;;;4.65;3.72;;;;;;;;;;4998494;28;20499;-72
2023/04/01 07:35:17;;;;;;;7.47;4.15;;;10.10;99.90;;;;;;5006649;28;20566;-72
2023/04/01 07:37:51;;;;;;;6.13;4.68;;;;;;;;;;4999830;28;20045;-73
2023/04/01 07:40:40;;;;;;;8.27;5.78;;;;;;;;;;4998508;28;20049;-73
2023/04/01 07:43:25;;;;;;;9.65;6.55;;;;;;;;;;5004203;28;20057;-74
2023/04/01 07:45:54;;;;;;;9.70;6.90;;;;;;;;;;5019377;28;20045;-72
2023/04/01 07:48:47;;;;;;;10.30;7.43;;;;;;;;;;5007191;28;20142;-72
2023/04/01 07:52:05;;;;;;;10.63;7.32;;;10.10;99.90;;;;;;5002450;28;20854;-72
2023/04/01 07:54:31;;;;;;;13.63;8.02;;;;;;;;;;5003606;28;20067;-72
2023/04/01 07:57:08;;;;;;;13.95;9.05;;;;;;;;;;5006202;28;20486;-72
2023/04/01 07:59:35;;;;;;;12.98;9.18;;;;;;;;;;4992035;28;20057;-76
2023/04/01 08:02:13;;;;;;;12.73;9.27;;;10.20;99.90;;;;;;4996792;28;20091;-71
2023/04/01 08:04:42;;;;;;;13.23;8.70;;;10.10;99.90;;;;;;4994117;28;20052;-74
2023/04/01 08:07:08;;;;;;;10.98;7.45;;;;;;;;;;5018213;28;20049;-73
2023/04/01 08:09:34;;;;;;;15.80;10.38;;;;;;;;;;5004223;28;20063;-75
2023/04/01 08:12:28;;;;;;;12.07;9.65;;;10.10;99.90;;;;;;5004213;28;20048;-72
2023/04/01 08:15:16;;;;;;;16.23;9.57;;;;;;;;;;5010435;28;20487;-72
2023/04/01 08:18:17;;;;;;;12.85;9.38;;;10.40;99.90;;;;;;4993828;28;20137;-72
2023/04/01 08:20:53;;;;;;;16.15;9.85;;;;;;;;;;4973122;28;20053;-73
2023/04/01 08:23:22;;;;;;;14.40;10.23;;;;;;;;;;5002294;28;20041;-73
2023/04/01 08:25:54;;;;;;;13.27;9.52;;;;;;;;;;5014361;28;20041;-73
2023/04/01 08:28:33;;;;;;;14.88;9.55;;;10.20;99.90;;;;;;5002779;28;20061;-72
2023/04/01 08:31:09;;;;;;;16.27;10.48;;;10.20;99.90;;;;;;5005332;28;20049;-72
2023/04/01 08:33:36;;;;;;;13.50;9.95;;;;;;;;;;5006667;28;20045;-72
2023/04/01 08:36:11;;;;;;;13.63;9.68;;;;;;;;;;5001155;28;20056;-71
2023/04/01 08:38:37;;;;;;;15.50;10.30;;;;;;;;;;5002610;28;20045;-71
2023/04/01 08:41:22;;;;;;;14.05;9.68;;;;;;;;;;5014203;28;20037;-73
2023/04/01 08:44:06;;;;;;;13.48;9.00;;;;;;;;;;4986880;28;20557;-72
2023/04/01 08:46:47;;;;;;;14.32;10.00;;;;;;;;;;5005010;28;20053;-71
2023/04/01 08:49:25;;;;;;;14.35;9.50;;;;;;;;;;4991908;28;20049;-71
2023/04/01 08:52:10;;;;;;;13.65;8.82;;;;;;;;;;5011319;28;20084;-70
2023/04/01 08:55:01;;;;;;;15.65;10.20;;;10.60;99.90;;;;;;4992619;28;20069;-71
2023/04/01 08:57:50;;;;;;;17.20;11.57;;;;;;;;;;5000579;28;20046;-71
2023/04/01 09:00:28;;;;;;;15.55;10.50;;;;;;;;;;5005928;28;20060;-70
2023/04/01 09:03:02;;;;;;;14.50;10.23;;;10.80;99.90;;;;;;4997011;28;20041;-71
2023/04/01 09:05:41;;;;;;;16.67;11.82;;;;;;;;;;5010810;28;20129;-69
2023/04/01 09:08:26;;;;;;;16.35;11.13;;;;;;;;;;5013287;28;20053;-70
2023/04/01 09:11:06;;;;;;;16.80;11.60;;;;;;;;;;4997949;28;20541;-72
2023/04/01 09:14:19;;;;;;;20.38;12.63;;;11.00;99.90;;;;;;5021470;28;20049;-70
2023/04/01 09:17:13;;;;;;;18.25;12.05;;;;;;;;;;4990646;28;20081;-70
2023/04/01 09:20:16;;;;;;;17.48;10.80;;;11.00;99.90;;;;;;4996256;28;20041;-70
2023/04/01 09:22:51;;;;;;;20.30;12.50;;;10.90;99.90;;;;;;4997118;28;20396;-70
2023/04/01 09:25:23;;;;;;;17.30;11.93;;;11.00;99.90;;;;;;4995032;28;20052;-70
2023/04/01 09:27:58;;;;;;;19.25;12.23;;;;;;;;;;4996477;28;20456;-70
2023/04/01 09:30:40;;;;;;;19.92;11.95;;;11.00;99.90;;;;;;5000330;28;20038;-70
2023/04/01 09:33:34;;;;;;;20.00;12.30;;;11.00;99.90;;;;;;4994606;28;20050;-70
2023/04/01 09:36:18;;;;;;;16.70;11.07;;;11.00;99.90;;;;;;5005255;28;20049;-69
2023/04/01 09:38:56;;;;;;;16.73;11.77;;;10.90;99.90;;;;;;4991843;28;20404;-69
2023/04/01 09:41:28;;;;;;;17.35;11.18;;;;;;;;;;5014383;28;20041;-71
2023/04/01 09:44:04;;;;;;;15.68;10.77;;;;;;;;;;5001134;28;20049;-70
2023/04/01 09:46:45;;;;;;;16.45;11.63;;;11.10;99.90;;;;;;5022883;28;20103;-70
2023/04/01 09:49:37;;;;;;;14.38;9.90;;;11.10;99.90;;;;;;5000265;28;20157;-69
2023/04/01 09:52:03;;;;;;;17.10;10.45;;;;;;;;;;4994200;28;20152;-70
2023/04/01 09:54:59;;;;;;;15.68;10.50;;;11.20;99.90;;;;;;5019504;28;20862;-69
2023/04/01 09:57:44;;;;;;;17.40;10.27;;;;;;;;;;5009553;28;20952;-69
2023/04/01 10:00:29;;;;;;;15.35;10.20;;;;;;;;;;5018877;28;20072;-68
2023/04/01 10:03:24;;;;;;;14.23;10.25;;;11.20;99.90;;;;;;5013177;28;20088;-68
2023/04/01 10:06:10;;;;;;;17.95;11.25;;;;;;;;;;4995005;28;20128;-68
2023/04/01 10:09:08;;;;;;;15.50;11.02;;;;;;;;;;5018606;28;20499;-71
2023/04/01 10:11:34;;;;;;;16.67;10.38;;;;;;;;;;4980828;28;20118;-71
2023/04/01 10:14:22;;;;;;;17.80;11.25;;;11.40;99.90;;;;;;4995817;28;20821;-71
2023/04/01 10:16:53;;;;;;;17.73;10.57;;;11.50;99.90;;;;;;5004184;28;20522;-71
2023/04/01 10:19:44;;;;;;;14.70;10.40;;;11.60;99.90;;;;;;4995336;28;20045;-71
2023/04/01 10:22:30;;;;;;;15.73;10.23;;;12.00;99.90;;;;;;4991453;28;20067;-71
2023/04/01 10:25:18;;;;;;;12.68;9.32;;;11.70;99.90;;;;;;5006677;28;20038;-71
2023/04/01 10:27:44;;;;;;;15.07;10.13;;;;;;;;;;5005620;28;20049;-71
2023/04/01 10:30:19;;;;;;;13.68;9.75;;;;;;;;;;4998041;28;20530;-71
2023/04/01 10:33:07;;;;;;;15.50;10.27;;;11.70;99.90;;;;;;5019439;28;20044;-71
2023/04/01 10:35:57;;;;;;;15.75;9.90;;;11.80;99.90;;;;;;4994897;28;20091;-71
2023/04/01 10:38:54;;;;;;;10.25;7.32;;;11.50;99.90;;;;;;5004125;28;20111;-71
2023/04/01 10:41:53;;;;;;;7.43;5.82;;;11.20;99.90;;;;;;4999778;28;20059;-71
2023/04/01 10:44:31;;;;;;;5.90;4.88;;;;;;;;;;5004261;28;20046;-69
2023/04/01 10:47:03;;;;;;;5.63;4.68;;;11.20;99.90;;;;;;4996763;28;20052;-70
2023/04/01 10:50:11;;;;;;;5.40;4.47;;;10.90;99.90;;;;;;4991392;28;20508;-70
2023/04/01 10:53:03;;;;;;;5.88;4.47;;;11.10;99.90;;;;;;5016824;28;20054;-69
2023/04/01 10:55:37;;;;;;;4.13;3.53;;;;;;;;;;5007598;28;20049;-69
2023/04/01 10:58:24;;;;;;;4.70;4.15;;;;;;;;;;5020124;28;20042;-69
2023/04/01 11:00:50;;;;;;;5.20;4.07;;;;;;;;;;4995583;28;20403;-69
2023/04/01 11:03:25;;;;;;;6.10;4.68;;;;;;;;;;5011904;28;20042;-68
2023/04/01 11:06:10;;;;;;;6.93;5.53;;;;;;;;;;4994329;28;20045;-68
2023/04/01 11:08:55;;;;;;;6.57;4.95;;;;;;;;;;4990707;28;20057;-67
2023/04/01 11:11:27;;;;;;;5.57;4.60;;;;;;;;;;4991288;28;20050;-68
2023/04/01 11:14:28;;;;;;;6.45;5.30;;;10.70;99.90;;;;;;4993261;28;20411;-68
2023/04/01 11:16:57;;;;;;;7.05;4.80;;;;;;;;;;5018081;28;20038;-70
2023/04/01 11:19:36;;;;;;;8.98;5.00;;;;;;;;;;4998909;28;20065;-69
2023/04/01 11:22:20;;;;;;;5.70;4.75;;;10.70;99.90;;;;;;5015127;28;20042;-72
2023/04/01 11:25:17;;;;;;;6.15;4.78;;;10.60;99.90;;;;;;5007636;28;20804;-70
2023/04/01 11:28:07;;;;;;;5.57;4.90;;;10.70;99.90;;;;;;5006236;28;20053;-70
2023/04/01 11:30:39;;;;;;;8.75;5.45;;;10.30;99.90;;;;;;5005652;28;20045;-70
2023/04/01 11:33:05;;;;;;;6.35;5.03;;;;;;;;;;5002576;28;20798;-70
2023/04/01 11:35:51;;;;;;;5.57;4.55;;;;;;;;;;5002696;28;20287;-74
2023/04/01 11:38:27;;;;;;;5.28;3.90;;;;;;;;;;5000106;28;20163;-77
2023/04/01 11:40:58;;;;;;;5.18;4.22;;;10.50;99.90;;;;;;4997040;28;20478;-70
2023/04/01 11:43:48;;;;;;;6.65;4.68;;;10.50;99.90;;;;;;5001896;28;20069;-70
2023/04/01 11:46:24;;;;;;;5.03;4.30;;;10.60;99.90;;;;;;5013946;28;20056;-70
2023/04/01 11:48:57;;;;;;;5.38;3.97;;;10.50;99.90;;;;;;5016332;28;20504;-70
2023/04/01 11:51:23;;;;;;;5.70;4.63;;;;;;;;;;5004353;28;20120;-71
2023/04/01 11:54:14;;;;;;;5.93;4.00;;;10.60;99.90;;;;;;5002644;28;20047;-73
2023/04/01 11:56:59;;;;;;;4.35;3.30;;;10.40;99.90;;;;;;5004897;28;20053;-71
2023/04/01 11:59:44;;;;;;;4.43;3.55;;;;;;;;;;4989579;28;20042;-72
2023/04/01 12:02:28;;;;;;;3.53;3.10;;;;;;;;;;5014136;28;20042;-71
2023/04/01 12:05:13;;;;;;;4.30;3.08;;;;;;;;;;4995952;28;20048;-72
2023/04/01 12:07:39;;;;;;;4.18;3.38;;;;;;;;;;4997800;28;20057;-72
2023/04/01 12:10:24;;;;;;;3.00;2.65;;;;;;;;;;5006170;28;20517;-75
2023/04/01 12:13:02;;;;;;;3.60;3.30;;;;;;;;;;5001902;28;20041;-73
2023/04/01 12:15:28;;;;;;;4.60;3.42;;;;;;;;;;5002018;28;20049;-77
2023/04/01 12:18:01;;;;;;;3.78;3.03;;;;;;;;;;5004907;28;20491;-75
2023/04/01 12:20:51;;;;;;;4.45;2.80;;;;;;;;;;5003195;28;20407;-73
2023/04/01 12:23:25;;;;;;;4.10;3.45;;;10.20;99.90;;;;;;5005737;28;20065;-70
2023/04/01 12:25:51;;;;;;;3.95;3.30;;;;;;;;;;4996903;28;20057;-72
2023/04/01 12:28:23;;;;;;;4.80;3.75;;;;;;;;;;5009863;28;20512;-72
2023/04/01 12:31:18;;;;;;;5.35;3.58;;;10.40;99.90;;;;;;4996914;28;20049;-72
2023/04/01 12:33:57;;;;;;;5.03;3.17;;;;;;;;;;5006169;28;20560;-72
2023/04/01 12:36:25;;;;;;;4.22;3.45;;;10.40;99.90;;;;;;5016924;28;20053;-72
2023/04/01 12:39:10;;;;;;;4.43;3.70;;;;;;;;;;4993129;28;20044;-72
2023/04/01 12:41:42;;;;;;;3.95;3.47;;;10.50;99.90;;;;;;5006828;28;20075;-73
2023/04/01 12:44:13;;;;;;;5.43;3.85;;;;;;;;;;5001445;28;20049;-70
2023/04/01 12:47:08;;;;;;;4.00;3.42;;;10.50;99.90;;;;;;5000927;28;20041;-72
2023/04/01 12:49:50;;;;;;;3.92;3.40;;;10.50;99.90;;;;;;5021187;28;20041;-71
2023/04/01 12:52:27;;;;;;;3.50;3.15;;;;;;;;;;4999784;28;20045;-69
2023/04/01 12:55:03;;;;;;;3.67;3.10;;;;;;;;;;5023274;28;20444;-69
2023/04/01 12:57:43;;;;;;;5.72;3.50;;;10.70;99.90;;;;;;4999277;28;20110;-69
2023/04/01 13:00:17;;;;;;;4.40;3.25;;;10.60;99.90;;;;;;5018923;28;20037;-69
2023/04/01 13:03:11;;;;;;;3.77;3.47;;;10.50;99.90;;;;;;4998554;28;20096;-69
2023/04/01 13:05:43;;;;;;;5.22;3.25;;;;;;;;;;4999178;28;20771;-72
2023/04/01 13:08:41;;;;;;;3.83;2.65;;;10.50;99.90;;;;;;5000890;28;20384;-69
2023/04/01 13:11:13;;;;;;;3.03;2.70;;;;;;;;;;4983375;28;20054;-70
2023/04/01 13:14:03;;;;;;;4.10;2.70;;;;;;;;;;5000538;28;20126;-70
2023/04/01 13:17:08;;;;;;;2.30;2.10;;;10.30;99.90;;;;;;4978830;28;20413;-69
2023/04/01 13:19:39;;;;;;;3.10;2.58;;;;;;;;;;4970701;28;20054;-69
2023/04/01 13:22:10;;;;;;;4.45;3.17;;;;;;;;;;4994939;28;20058;-70
2023/04/01 13:24:52;;;;;;;3.47;2.35;;;;;;;;;;5007263;28;20124;-72
2023/04/01 13:27:34;;;;;;;3.67;2.83;;;;;;;;;;5007606;28;20118;-72
2023/04/01 13:30:03;;;;;;;3.08;2.65;;;;;;;;;;5013436;28;20069;-71
2023/04/01 13:32:50;;;;;;;2.85;2.50;;;10.30;99.90;;;;;;4984958;28;20045;-71
2023/04/01 13:35:19;;;;;;;3.00;2.70;;;;;;;;;;4998959;28;20071;-70
2023/04/01 13:37:55;;;;;;;2.90;2.70;;;;;;;;;;4994792;28;20053;-72
2023/04/01 13:40:28;;;;;;;10.18;5.95;;;;;;;;;;4994903;28;20061;-71
2023/04/01 13:42:59;;;;;;;3.40;3.05;;;;;;;;;;5000489;28;20061;-73
2023/04/01 13:45:44;;;;;;;3.80;3.40;;;;;;;;;;5019242;28;20842;-72
2023/04/01 13:48:28;;;;;;;4.97;3.65;;;;;;;;;;5002232;28;20053;-70
2023/04/01 13:51:33;;;;;;;3.92;3.22;;;;;;;;;;4992724;28;20133;-68
2023/04/01 13:54:14;;;;;;;3.50;3.17;;;9.90;99.90;;;;;;4958187;28;20051;-68
2023/04/01 13:56:55;;;;;;;4.72;3.22;;;;;;;;;;4958478;28;20532;-69
2023/04/01 13:59:39;;;;;;;3.35;3.05;;;;;;;;;;4988232;28;20060;-69
2023/04/01 14:02:24;;;;;;;3.45;3.15;;;;;;;;;;4998137;28;20107;-69
2023/04/01 14:04:49;;;;;;;3.45;3.10;;;9.80;99.90;;;;;;5018711;28;20045;-69
2023/04/01 14:07:34;;;;;;;4.03;3.30;;;;;;;;;;4998901;28;20058;-71
2023/04/01 14:10:19;;;;;;;2.60;2.40;;;;;;;;;;4996132;28;20499;-71
2023/04/01 14:13:06;;;;;;;3.28;2.58;;;9.70;99.90;;;;;;4994058;28;20054;-71
2023/04/01 14:15:40;;;;;;;2.92;2.42;;;;;;;;;;5012779;28;20152;-70
2023/04/01 14:18:30;;;;;;;3.05;2.80;;;;;;;;;;4992016;28;20159;-71
2023/04/01 14:21:20;;;;;;;2.92;2.63;;;;;;;;;;5010124;28;20041;-71
2023/04/01 14:24:01;;;;;;;3.47;2.65;;;;;;;;;;5001824;28;20045;-72
2023/04/01 14:27:08;;;;;;;2.50;2.30;;;9.50;99.90;;;;;;4994073;28;20635;-71
2023/04/01 14:29:53;;;;;;;2.60;2.40;;;;;;;;;;5008587;28;20042;-70
2023/04/01 14:32:29;;;;;;;2.28;2.08;;;;;;;;;;5000004;28;20041;-71
2023/04/01 14:35:14;;;;;;;2.40;2.10;;;;;;;;;;5013340;28;20046;-71
2023/04/01 14:37:58;;;;;;;3.10;2.30;;;;;;;;;;5012883;28;20044;-72
2023/04/01 14:40:29;;;;;;;2.75;2.38;;;;;;;;;;5005321;28;20061;-71
2023/04/01 14:43:13;;;;;;;2.60;2.40;;;;;;;;;;5013800;28;20140;-71
2023/04/01 14:45:58;;;;;;;2.57;2.37;;;;;;;;;;5001843;28;20056;-70
2023/04/01 14:48:24;;;;;;;2.53;2.22;;;;;;;;;;5017090;28;20323;-71